Time;durP1;ratioP1;P1;durP2;ratioP2;P2;SDS_P1;SDS_P2;PMS_P1;PMS_P2;Temp;Humidity;BMP_temperature;BMP_pressure;BME280_temperature;BME280_humidity;BME280_pressure;Samples;Min_cycle;Max_cycle;Signal;HPM_P1;HPM_P2
2023/12/30 00:00:57;;;;;;;10.77;1.92;;;;;;;;;;5094354;28;20024;-65
2023/12/30 00:03:23;;;;;;;13.50;2.20;;;;;;;;;;5092900;28;20401;-65
2023/12/30 00:05:48;;;;;;;7.55;1.50;;;;;;;;;;5092477;28;20040;-65
2023/12/30 00:08:13;;;;;;;9.63;1.83;;;;;;;;;;5070119;28;20036;-65
2023/12/30 00:10:38;;;;;;;9.18;1.58;;;;;;;;;;5085143;28;20823;-65
2023/12/30 00:13:04;;;;;;;13.45;1.95;;;;;;;;;;5093108;28;20028;-65
2023/12/30 00:15:29;;;;;;;5.45;1.58;;;;;;;;;;5075222;28;20023;-65
2023/12/30 00:17:54;;;;;;;6.45;1.77;;;;;;;;;;5093024;28;20020;-65
2023/12/30 00:20:19;;;;;;;11.07;2.03;;;;;;;;;;5092999;28;20024;-65
2023/12/30 00:22:45;;;;;;;5.50;2.00;;;;;;;;;;5093528;28;20066;-65
2023/12/30 00:25:10;;;;;;;9.17;1.33;;;;;;;;;;5092545;28;20100;-64
2023/12/30 00:27:35;;;;;;;5.13;1.25;;;;;;;;;;5093445;28;20681;-65
2023/12/30 00:30:01;;;;;;;8.73;2.00;;;;;;;;;;5086921;28;20395;-65
2023/12/30 00:32:26;;;;;;;9.13;2.40;;;;;;;;;;5093294;28;20032;-64
2023/12/30 00:34:51;;;;;;;10.73;1.85;;;;;;;;;;5089458;28;20348;-65
2023/12/30 00:37:20;;;;;;;7.82;1.95;;;;;;;;;;5084078;28;20055;-65
2023/12/30 00:39:45;;;;;;;5.43;1.70;;;;;;;;;;5093310;28;20028;-65
2023/12/30 00:42:10;;;;;;;12.65;2.85;;;;;;;;;;5093001;28;20105;-65
2023/12/30 00:44:35;;;;;;;13.30;2.53;;;;;;;;;;5071943;28;20532;-65
2023/12/30 00:47:01;;;;;;;5.35;1.50;;;;;;;;;;5088858;28;20756;-65
2023/12/30 00:49:26;;;;;;;6.30;1.70;;;;;;;;;;5092549;28;20039;-64
2023/12/30 00:51:51;;;;;;;6.03;1.80;;;;;;;;;;5092507;28;20266;-65
2023/12/30 00:54:16;;;;;;;6.80;1.83;;;;;;;;;;5092310;28;20288;-65
2023/12/30 00:56:41;;;;;;;9.67;1.63;;;;;;;;;;5082970;28;20345;-65
2023/12/30 00:59:07;;;;;;;7.72;1.67;;;;;;;;;;5082661;28;20267;-65
2023/12/30 01:01:32;;;;;;;7.77;1.93;;;;;;;;;;5092092;28;20065;-65
2023/12/30 01:03:57;;;;;;;7.70;1.73;;;;;;;;;;5092612;28;20262;-64
2023/12/30 01:06:23;;;;;;;9.60;2.37;;;;;;;;;;5093080;28;20119;-64
2023/12/30 01:08:48;;;;;;;6.70;1.77;;;;;;;;;;5091879;28;20309;-64
2023/12/30 01:11:13;;;;;;;5.70;1.50;;;;;;;;;;5087331;28;20297;-64
2023/12/30 01:13:38;;;;;;;6.20;1.33;;;;;;;;;;5093091;28;20285;-64
2023/12/30 01:16:05;;;;;;;4.00;1.23;;;;;;;;;;5083499;28;20024;-65
2023/12/30 01:18:30;;;;;;;6.20;2.05;;;;;;;;;;5092397;28;20039;-64
2023/12/30 01:20:55;;;;;;;9.15;2.00;;;;;;;;;;5091856;28;20016;-64
2023/12/30 01:23:20;;;;;;;7.67;1.77;;;;;;;;;;5092344;28;20024;-65
2023/12/30 01:25:46;;;;;;;18.83;2.55;;;;;;;;;;5091889;28;20309;-65
2023/12/30 01:28:11;;;;;;;10.25;2.38;;;;;;;;;;5092765;28;20536;-64
2023/12/30 01:30:36;;;;;;;6.80;1.70;;;;;;;;;;5087237;28;20082;-65
2023/12/30 01:33:02;;;;;;;10.20;1.92;;;;;;;;;;5073486;28;20335;-65
2023/12/30 01:35:27;;;;;;;8.40;1.73;;;;;;;;;;5091537;28;20035;-65
2023/12/30 01:37:52;;;;;;;5.37;1.63;;;;;;;;;;5092434;28;20028;-65
2023/12/30 01:40:17;;;;;;;7.70;1.53;;;;;;;;;;5091101;28;20268;-65
2023/12/30 01:42:43;;;;;;;8.87;1.73;;;;;;;;;;5092268;28;20349;-65
2023/12/30 01:45:08;;;;;;;8.68;1.42;;;;;;;;;;5092104;28;20328;-64
2023/12/30 01:47:34;;;;;;;8.52;2.10;;;;;;;;;;5092254;28;20024;-64
2023/12/30 01:49:59;;;;;;;8.07;1.52;;;;;;;;;;5091246;28;20074;-64
2023/12/30 01:52:25;;;;;;;11.95;1.55;;;;;;;;;;5091450;28;20039;-65
2023/12/30 01:54:50;;;;;;;10.20;1.98;;;;;;;;;;5082286;28;20028;-65
2023/12/30 01:57:15;;;;;;;7.53;1.80;;;;;;;;;;5091584;28;20438;-64
2023/12/30 01:59:41;;;;;;;14.20;2.85;;;;;;;;;;5091919;28;20027;-65
2023/12/30 02:02:06;;;;;;;5.60;1.60;;;;;;;;;;5070757;28;20031;-64
2023/12/30 02:04:31;;;;;;;8.13;1.52;;;;;;;;;;5091621;28;20077;-65
2023/12/30 02:06:57;;;;;;;5.65;1.23;;;;;;;;;;5092046;28;20051;-65
2023/12/30 02:09:22;;;;;;;4.65;1.73;;;;;;;;;;5091327;28;20166;-64
2023/12/30 02:11:48;;;;;;;8.65;1.40;;;;;;;;;;5091204;28;20489;-65
2023/12/30 02:14:23;;;;;;;6.15;1.40;;;;;;;;;;5090820;28;20072;-65
2023/12/30 02:16:48;;;;;;;9.80;2.05;;;;;;;;;;5085976;28;20024;-64
2023/12/30 02:19:13;;;;;;;7.67;1.20;;;;;;;;;;5084693;28;20039;-65
2023/12/30 02:21:38;;;;;;;6.47;1.67;;;;;;;;;;5091730;28;20377;-65
2023/12/30 02:24:04;;;;;;;6.73;1.33;;;;;;;;;;5090943;28;20266;-65
2023/12/30 02:26:30;;;;;;;7.57;2.10;;;;;;;;;;5090448;28;20329;-65
2023/12/30 02:28:55;;;;;;;7.32;1.95;;;;;;;;;;5090152;28;20025;-65
2023/12/30 02:31:21;;;;;;;8.00;1.63;;;;;;;;;;5088932;28;20020;-65
2023/12/30 02:33:46;;;;;;;5.03;1.17;;;;;;;;;;5091646;28;20270;-65
2023/12/30 02:36:11;;;;;;;6.70;1.75;;;;;;;;;;5091140;28;20304;-65
2023/12/30 02:38:36;;;;;;;11.20;2.30;;;;;;;;;;5090169;28;20039;-65
2023/12/30 02:41:02;;;;;;;5.68;1.55;;;;;;;;;;5091867;28;20274;-66
2023/12/30 02:43:27;;;;;;;6.75;2.00;;;;;;;;;;5089374;28;20542;-66
2023/12/30 02:45:55;;;;;;;8.15;2.05;;;;;;;;;;5090451;28;20032;-66
2023/12/30 02:48:20;;;;;;;9.30;1.77;;;;;;;;;;5090575;28;20115;-66
2023/12/30 02:50:45;;;;;;;7.13;1.90;;;;;;;;;;5089810;28;20056;-66
2023/12/30 02:53:10;;;;;;;9.52;1.90;;;;;;;;;;5090673;28;20318;-66
2023/12/30 02:55:36;;;;;;;7.63;2.20;;;;;;;;;;5090650;28;20037;-66
2023/12/30 02:58:01;;;;;;;11.07;2.07;;;;;;;;;;5090776;28;20123;-65
2023/12/30 03:00:26;;;;;;;11.45;1.85;;;;;;;;;;5091450;28;20355;-65
2023/12/30 03:02:52;;;;;;;13.68;2.15;;;;;;;;;;5091297;28;20035;-66
2023/12/30 03:05:17;;;;;;;11.07;2.23;;;;;;;;;;5088337;28;20016;-65
2023/12/30 03:07:44;;;;;;;8.50;2.03;;;;;;;;;;5089885;28;20286;-66
2023/12/30 03:10:09;;;;;;;8.70;1.70;;;;;;;;;;5071807;28;20107;-65
2023/12/30 03:12:34;;;;;;;9.52;1.77;;;;;;;;;;5085028;28;20110;-65
2023/12/30 03:15:00;;;;;;;8.90;2.37;;;;;;;;;;5086930;28;20060;-65
2023/12/30 03:17:25;;;;;;;5.70;1.90;;;;;;;;;;5090426;28;20258;-66
2023/12/30 03:19:50;;;;;;;12.63;2.38;;;;;;;;;;5089256;28;20020;-65
2023/12/30 03:22:15;;;;;;;5.75;1.67;;;;;;;;;;5091165;28;20446;-65
2023/12/30 03:24:40;;;;;;;7.17;2.10;;;;;;;;;;5071534;28;20031;-65
2023/12/30 03:27:06;;;;;;;11.10;1.70;;;;;;;;;;5089847;28;20281;-65
2023/12/30 03:29:31;;;;;;;9.40;1.60;;;;;;;;;;5090362;28;20271;-66
2023/12/30 03:31:56;;;;;;;10.97;2.57;;;;;;;;;;5090470;28;20365;-63
2023/12/30 03:34:21;;;;;;;12.02;2.25;;;;;;;;;;5090591;28;20325;-66
2023/12/30 03:36:47;;;;;;;8.27;2.43;;;;;;;;;;5090572;28;20103;-66
2023/12/30 03:39:12;;;;;;;8.48;2.42;;;;;;;;;;5084480;28;20357;-65
2023/12/30 03:41:37;;;;;;;11.77;3.07;;;;;;;;;;5093195;28;20066;-64
2023/12/30 03:44:02;;;;;;;10.93;2.17;;;;;;;;;;5094356;28;20270;-64
2023/12/30 03:46:28;;;;;;;8.20;1.95;;;;;;;;;;5091670;28;20032;-64
2023/12/30 03:48:53;;;;;;;9.87;2.53;;;;;;;;;;5083092;28;20020;-64
2023/12/30 03:51:18;;;;;;;6.40;1.77;;;;;;;;;;5093575;28;20612;-64
2023/12/30 03:53:43;;;;;;;11.15;2.28;;;;;;;;;;5093605;28;20024;-64
2023/12/30 03:56:09;;;;;;;9.25;2.35;;;;;;;;;;5092374;28;20061;-64
2023/12/30 03:58:34;;;;;;;11.77;3.40;;;;;;;;;;5092705;28;20028;-64
2023/12/30 04:01:00;;;;;;;12.05;3.13;;;;;;;;;;5093840;28;20054;-64
2023/12/30 04:03:25;;;;;;;12.70;3.83;;;;;;;;;;5094221;28;20016;-64
2023/12/30 04:05:50;;;;;;;12.77;4.10;;;;;;;;;;5092924;28;20331;-64
2023/12/30 04:08:15;;;;;;;13.57;3.53;;;;;;;;;;5081991;28;20285;-64
2023/12/30 04:10:40;;;;;;;7.93;2.70;;;;;;;;;;5082345;28;20270;-64
2023/12/30 04:13:06;;;;;;;8.55;2.75;;;;;;;;;;5094178;28;20327;-64
2023/12/30 04:15:31;;;;;;;7.35;2.35;;;;;;;;;;5093305;28;20024;-66
2023/12/30 04:17:56;;;;;;;9.48;1.88;;;;;;;;;;5085217;28;20107;-64
2023/12/30 04:20:21;;;;;;;8.48;1.83;;;;;;;;;;5093655;28;20030;-64
2023/12/30 04:22:47;;;;;;;9.83;1.47;;;;;;;;;;5093662;28;20078;-64
2023/12/30 04:25:12;;;;;;;9.07;1.70;;;;;;;;;;5075717;28;20290;-64
2023/12/30 04:27:37;;;;;;;4.82;1.50;;;;;;;;;;5091641;28;20039;-64
2023/12/30 04:30:03;;;;;;;12.68;1.83;;;;;;;;;;5093619;28;20539;-67
2023/12/30 04:32:28;;;;;;;6.72;2.25;;;;;;;;;;5093062;28;20020;-64
2023/12/30 04:34:53;;;;;;;8.82;2.33;;;;;;;;;;5093133;28;20031;-63
2023/12/30 04:37:19;;;;;;;7.72;1.98;;;;;;;;;;5085560;28;20032;-64
2023/12/30 04:39:44;;;;;;;4.38;1.13;;;;;;;;;;5093634;28;20020;-64
2023/12/30 04:42:09;;;;;;;6.57;1.57;;;;;;;;;;5092379;28;20101;-64
2023/12/30 04:44:35;;;;;;;10.60;1.95;;;;;;;;;;5093477;28;20406;-65
2023/12/30 04:47:00;;;;;;;11.70;2.23;;;;;;;;;;5092412;28;20070;-64
2023/12/30 04:49:25;;;;;;;5.73;1.90;;;;;;;;;;5093515;28;20359;-65
2023/12/30 04:51:51;;;;;;;6.38;1.30;;;;;;;;;;5091773;28;20299;-65
2023/12/30 04:54:16;;;;;;;9.73;2.53;;;;;;;;;;5092829;28;20043;-65
2023/12/30 04:56:41;;;;;;;8.13;2.10;;;;;;;;;;5092829;28;20056;-65
2023/12/30 04:59:07;;;;;;;6.40;2.13;;;;;;;;;;5091801;28;20289;-64
2023/12/30 05:01:33;;;;;;;5.38;1.52;;;;;;;;;;5092729;28;20052;-65
2023/12/30 05:03:58;;;;;;;4.70;1.57;;;;;;;;;;5089169;28;20047;-65
2023/12/30 05:06:23;;;;;;;4.73;1.73;;;;;;;;;;5084859;28;20289;-65
2023/12/30 05:08:49;;;;;;;5.85;1.48;;;;;;;;;;5092565;28;20277;-65
2023/12/30 05:11:14;;;;;;;6.40;2.08;;;;;;;;;;5093103;28;20077;-65
2023/12/30 05:13:40;;;;;;;5.30;1.48;;;;;;;;;;5090138;28;20027;-65
2023/12/30 05:16:05;;;;;;;5.47;1.77;;;;;;;;;;5092641;28;20106;-65
2023/12/30 05:18:30;;;;;;;7.18;1.77;;;;;;;;;;5089726;28;20347;-65
2023/12/30 05:20:56;;;;;;;6.13;1.63;;;;;;;;;;5091777;28;20520;-65
2023/12/30 05:23:21;;;;;;;5.40;1.50;;;;;;;;;;5093157;28;20296;-65
2023/12/30 05:25:47;;;;;;;10.30;1.50;;;;;;;;;;5092448;28;20294;-66
2023/12/30 05:28:12;;;;;;;7.63;1.80;;;;;;;;;;5088514;28;20024;-65
2023/12/30 05:30:37;;;;;;;8.45;1.73;;;;;;;;;;5090170;28;20024;-65
2023/12/30 05:33:04;;;;;;;9.15;2.53;;;;;;;;;;5092033;28;20008;-65
2023/12/30 05:35:30;;;;;;;4.25;1.10;;;;;;;;;;5092443;28;20050;-64
2023/12/30 05:37:55;;;;;;;7.43;1.70;;;;;;;;;;5092841;28;20024;-64
2023/12/30 05:40:21;;;;;;;8.55;2.03;;;;;;;;;;5090596;28;20424;-64
2023/12/30 05:42:46;;;;;;;8.98;1.88;;;;;;;;;;5091137;28;20024;-64
2023/12/30 05:45:11;;;;;;;9.77;2.07;;;;;;;;;;5092020;28;20085;-65
2023/12/30 05:47:36;;;;;;;9.27;1.67;;;;;;;;;;5091201;28;20631;-64
2023/12/30 05:50:02;;;;;;;7.38;1.73;;;;;;;;;;5091861;28;20028;-64
2023/12/30 05:52:27;;;;;;;7.88;1.63;;;;;;;;;;5091182;28;20081;-64
2023/12/30 05:54:52;;;;;;;6.65;1.80;;;;;;;;;;5086624;28;20150;-64
2023/12/30 05:57:18;;;;;;;3.63;1.40;;;;;;;;;;5084609;28;20028;-64
2023/12/30 05:59:43;;;;;;;6.90;1.27;;;;;;;;;;5091874;28;20270;-64
2023/12/30 06:02:08;;;;;;;8.70;2.00;;;;;;;;;;5090410;28;20287;-64
2023/12/30 06:04:34;;;;;;;6.32;1.50;;;;;;;;;;5090358;28;20035;-64
2023/12/30 06:06:59;;;;;;;14.45;2.17;;;;;;;;;;5090387;28;20028;-64
2023/12/30 06:09:24;;;;;;;12.47;2.93;;;;;;;;;;5091336;28;20462;-65
2023/12/30 06:11:49;;;;;;;9.47;1.97;;;;;;;;;;5090506;28;20639;-64
2023/12/30 06:14:15;;;;;;;9.85;1.83;;;;;;;;;;5091087;28;20682;-65
2023/12/30 06:16:40;;;;;;;12.38;1.98;;;;;;;;;;5090862;28;20032;-64
2023/12/30 06:19:06;;;;;;;11.73;2.35;;;;;;;;;;5090494;28;20429;-64
2023/12/30 06:21:31;;;;;;;10.27;2.20;;;;;;;;;;5090586;28;20032;-64
2023/12/30 06:23:56;;;;;;;8.45;1.73;;;;;;;;;;5091912;28;20024;-64
2023/12/30 06:26:21;;;;;;;9.37;2.23;;;;;;;;;;5091748;28;20028;-64
2023/12/30 06:28:47;;;;;;;5.33;2.07;;;;;;;;;;5088558;28;20270;-65
2023/12/30 06:31:12;;;;;;;9.05;1.83;;;;;;;;;;5091552;28;20273;-64
2023/12/30 06:33:37;;;;;;;7.43;1.55;;;;;;;;;;5091068;28;20027;-65
2023/12/30 06:36:02;;;;;;;9.45;1.92;;;;;;;;;;5090862;28;20023;-64
2023/12/30 06:38:28;;;;;;;14.25;2.25;;;;;;;;;;5089764;28;20472;-64
2023/12/30 06:40:53;;;;;;;8.27;1.80;;;;;;;;;;5091372;28;20028;-64
2023/12/30 06:43:18;;;;;;;7.00;1.70;;;;;;;;;;5091921;28;20266;-64
2023/12/30 06:45:43;;;;;;;5.77;1.80;;;;;;;;;;5089803;28;20428;-64
2023/12/30 06:48:09;;;;;;;11.20;1.60;;;;;;;;;;5089234;28;20309;-64
2023/12/30 06:50:34;;;;;;;5.97;1.95;;;;;;;;;;5080770;28;20287;-64
2023/12/30 06:53:00;;;;;;;6.32;2.17;;;;;;;;;;5088123;28;20024;-64
2023/12/30 06:55:26;;;;;;;11.43;2.38;;;;;;;;;;5091358;28;20107;-64
2023/12/30 06:57:51;;;;;;;14.68;2.78;;;;;;;;;;5090929;28;20050;-64
2023/12/30 07:00:17;;;;;;;6.35;2.13;;;;;;;;;;5078702;28;20025;-64
2023/12/30 07:02:42;;;;;;;7.15;2.17;;;;;;;;;;5090712;28;20027;-64
2023/12/30 07:05:08;;;;;;;8.02;2.58;;;;;;;;;;5090772;28;20074;-64
2023/12/30 07:07:33;;;;;;;7.63;2.30;;;;;;;;;;5090671;28;20024;-65
2023/12/30 07:09:59;;;;;;;9.20;1.98;;;;;;;;;;5064996;28;20027;-64
2023/12/30 07:12:24;;;;;;;9.40;2.15;;;;;;;;;;5048519;28;20147;-64
2023/12/30 07:14:49;;;;;;;5.63;1.80;;;;;;;;;;5051755;28;20024;-65
2023/12/30 07:17:15;;;;;;;11.53;2.30;;;;;;;;;;5050421;28;20032;-64
2023/12/30 07:19:40;;;;;;;10.18;2.78;;;;;;;;;;5050925;28;21204;-64
2023/12/30 07:22:06;;;;;;;7.57;3.20;;;;;;;;;;5067275;28;20805;-64
2023/12/30 07:24:31;;;;;;;10.07;4.00;;;;;;;;;;5058147;28;20035;-64
2023/12/30 07:26:56;;;;;;;10.43;3.15;;;;;;;;;;5048743;28;21249;-64
2023/12/30 07:29:21;;;;;;;7.77;2.77;;;;;;;;;;5052515;28;20918;-64
2023/12/30 07:31:48;;;;;;;11.33;2.80;;;;;;;;;;5054662;28;20369;-64
2023/12/30 07:34:13;;;;;;;8.18;2.22;;;;;;;;;;5053539;28;20270;-64
2023/12/30 07:36:38;;;;;;;7.38;2.55;;;;;;;;;;5046446;28;20319;-64
2023/12/30 07:39:04;;;;;;;10.18;2.55;;;;;;;;;;5053866;28;20106;-64
2023/12/30 07:41:29;;;;;;;10.10;2.58;;;;;;;;;;5053920;28;20068;-65
2023/12/30 07:43:54;;;;;;;8.90;2.47;;;;;;;;;;5055794;28;20035;-64
2023/12/30 07:46:19;;;;;;;4.40;1.90;;;;;;;;;;5065032;28;20343;-64
2023/12/30 07:48:45;;;;;;;10.93;2.70;;;;;;;;;;5080329;28;20674;-64
2023/12/30 07:51:10;;;;;;;10.55;3.40;;;;;;;;;;5078290;28;20035;-64
2023/12/30 07:53:35;;;;;;;9.38;3.38;;;;;;;;;;5067569;28;20020;-64
2023/12/30 07:56:01;;;;;;;6.90;2.33;;;;;;;;;;5073108;28;20024;-64
2023/12/30 07:58:26;;;;;;;5.85;2.40;;;;;;;;;;5078905;28;20066;-64
2023/12/30 08:00:51;;;;;;;8.17;2.77;;;;;;;;;;5070505;28;20028;-64
2023/12/30 08:03:17;;;;;;;5.63;2.80;;;;;;;;;;5053173;28;20266;-65
2023/12/30 08:05:42;;;;;;;7.23;2.27;;;;;;;;;;5059902;28;20032;-64
2023/12/30 08:08:12;;;;;;;16.20;2.40;;;;;;;;;;5053053;28;20302;-64
2023/12/30 08:10:37;;;;;;;7.15;2.30;;;;;;;;;;5050801;28;20097;-64
2023/12/30 08:13:03;;;;;;;4.43;2.10;;;;;;;;;;5054146;28;20230;-64
2023/12/30 08:15:28;;;;;;;14.65;3.00;;;;;;;;;;5053399;28;20474;-64
2023/12/30 08:17:54;;;;;;;12.90;3.10;;;;;;;;;;5056795;28;20056;-65
2023/12/30 08:20:19;;;;;;;9.60;2.43;;;;;;;;;;5054533;28;20033;-65
2023/12/30 08:22:44;;;;;;;8.17;2.40;;;;;;;;;;5043340;28;20262;-65
2023/12/30 08:25:09;;;;;;;11.37;2.50;;;;;;;;;;5034188;28;20328;-64
2023/12/30 08:27:36;;;;;;;9.80;2.47;;;;;;;;;;5054341;28;20282;-65
2023/12/30 08:30:01;;;;;;;11.25;3.15;;;;;;;;;;5060546;28;20078;-65
2023/12/30 08:32:26;;;;;;;7.55;2.50;;;;;;;;;;5057164;28;20032;-65
2023/12/30 08:34:54;;;;;;;10.18;2.78;;;;;;;;;;5057953;28;20036;-64
2023/12/30 08:37:19;;;;;;;10.43;3.35;;;;;;;;;;5061301;28;20036;-64
2023/12/30 08:39:45;;;;;;;9.30;2.28;;;;;;;;;;5060008;28;20726;-65
2023/12/30 08:42:11;;;;;;;4.97;1.83;;;;;;;;;;5065346;28;20035;-65
2023/12/30 08:44:40;;;;;;;9.15;2.47;;;;;;;;;;5072512;28;20032;-65
2023/12/30 08:47:05;;;;;;;6.97;2.17;;;;;;;;;;5069354;28;20035;-65
2023/12/30 08:49:31;;;;;;;14.02;2.47;;;;;;;;;;5067672;28;20260;-65
2023/12/30 08:51:56;;;;;;;12.15;2.63;;;;;;;;;;5068609;28;20028;-65
2023/12/30 08:54:22;;;;;;;8.77;2.60;;;;;;;;;;5081603;28;20417;-65
2023/12/30 08:56:48;;;;;;;12.60;2.77;;;;;;;;;;5083015;28;21652;-65
2023/12/30 08:59:13;;;;;;;8.05;2.42;;;;;;;;;;5081678;28;20373;-65
2023/12/30 09:01:39;;;;;;;6.97;2.60;;;;;;;;;;5084026;28;20661;-65
2023/12/30 09:04:04;;;;;;;9.52;2.25;;;;;;;;;;5083215;28;20842;-65
2023/12/30 09:06:29;;;;;;;7.47;2.80;;;;;;;;;;5077228;28;20032;-65
2023/12/30 09:08:55;;;;;;;7.38;2.38;;;;;;;;;;5071069;28;20274;-65
2023/12/30 09:11:20;;;;;;;8.97;2.87;;;;;;;;;;5084010;28;20036;-66
2023/12/30 09:13:46;;;;;;;6.55;2.47;;;;;;;;;;5080366;28;20277;-65
2023/12/30 09:16:11;;;;;;;10.93;2.75;;;;;;;;;;5074726;28;20032;-65
2023/12/30 09:18:36;;;;;;;10.45;2.47;;;;;;;;;;5077656;28;20797;-65
2023/12/30 09:21:02;;;;;;;7.97;2.65;;;;;;;;;;5077725;28;20027;-65
2023/12/30 09:23:27;;;;;;;12.55;2.75;;;;;;;;;;5056356;28;20028;-65
2023/12/30 09:25:52;;;;;;;7.65;2.03;;;;;;;;;;5052851;28;20244;-65
2023/12/30 09:28:17;;;;;;;13.07;3.08;;;;;;;;;;5047642;28;20089;-64
2023/12/30 09:30:43;;;;;;;12.47;3.57;;;;;;;;;;5081156;28;20394;-64
2023/12/30 09:33:08;;;;;;;7.22;2.20;;;;;;;;;;5085941;28;20456;-64
2023/12/30 09:35:33;;;;;;;6.97;2.40;;;;;;;;;;5065289;28;20028;-65
2023/12/30 09:37:58;;;;;;;10.43;2.63;;;;;;;;;;5058204;28;20285;-64
2023/12/30 09:40:24;;;;;;;7.73;2.17;;;;;;;;;;5081620;28;20266;-65
2023/12/30 09:42:50;;;;;;;10.00;3.38;;;;;;;;;;5072019;28;20755;-64
2023/12/30 09:45:16;;;;;;;7.30;3.00;;;;;;;;;;5063214;28;20440;-65
2023/12/30 09:47:41;;;;;;;10.40;2.85;;;;;;;;;;5060869;28;20077;-64
2023/12/30 09:50:07;;;;;;;10.07;2.70;;;;;;;;;;5069743;28;20032;-65
2023/12/30 09:52:32;;;;;;;7.43;2.33;;;;;;;;;;5074737;28;20028;-65
2023/12/30 09:54:58;;;;;;;8.65;2.60;;;;;;;;;;5071208;28;20081;-64
2023/12/30 09:57:23;;;;;;;6.57;2.03;;;;;;;;;;5065915;28;20024;-66
2023/12/30 09:59:49;;;;;;;6.80;2.53;;;;;;;;;;5059634;28;20028;-65
2023/12/30 10:02:15;;;;;;;6.65;2.47;;;;;;;;;;5072712;28;20265;-65
2023/12/30 10:04:40;;;;;;;8.77;2.55;;;;;;;;;;5063659;28;20032;-65
2023/12/30 10:07:07;;;;;;;12.32;2.65;;;;;;;;;;5071438;28;20058;-65
2023/12/30 10:09:32;;;;;;;8.82;2.42;;;;;;;;;;5062276;28;20055;-65
2023/12/30 10:11:58;;;;;;;9.25;2.47;;;;;;;;;;5055293;28;20020;-65
2023/12/30 10:14:23;;;;;;;7.35;2.22;;;;;;;;;;5063737;28;20031;-64
2023/12/30 10:16:48;;;;;;;7.10;2.28;;;;;;;;;;5059460;28;20516;-62
2023/12/30 10:19:14;;;;;;;5.60;2.55;;;;;;;;;;5053046;28;20769;-63
2023/12/30 10:21:39;;;;;;;12.13;2.45;;;;;;;;;;5052703;28;20466;-63
2023/12/30 10:24:05;;;;;;;6.22;1.80;;;;;;;;;;5051573;28;20547;-63
2023/12/30 10:26:31;;;;;;;6.78;2.83;;;;;;;;;;5048106;28;20075;-63
2023/12/30 10:28:56;;;;;;;7.95;1.65;;;;;;;;;;5065584;28;20131;-62
2023/12/30 10:31:23;;;;;;;5.43;2.00;;;;;;;;;;5054390;28;20986;-65
2023/12/30 10:33:48;;;;;;;7.13;2.28;;;;;;;;;;5063394;28;20039;-64
2023/12/30 10:36:15;;;;;;;7.43;2.37;;;;;;;;;;5052847;28;20098;-65
2023/12/30 10:38:40;;;;;;;9.07;2.00;;;;;;;;;;5064273;28;20558;-65
2023/12/30 10:41:06;;;;;;;6.60;2.08;;;;;;;;;;5046120;28;20012;-63
2023/12/30 10:43:31;;;;;;;5.97;1.52;;;;;;;;;;5040349;28;20073;-65
2023/12/30 10:46:00;;;;;;;8.07;2.05;;;;;;;;;;5055395;28;20034;-65
2023/12/30 10:48:29;;;;;;;6.15;1.63;;;;;;;;;;5051077;28;20946;-65
2023/12/30 10:50:56;;;;;;;7.00;1.60;;;;;;;;;;5085373;28;20089;-65
2023/12/30 10:53:44;;;;;;;6.18;1.75;;;;;;;;;;5085513;28;20077;-65
2023/12/30 10:56:11;;;;;;;9.10;2.15;;;;;;;;;;5068830;28;20449;-65
2023/12/30 10:58:39;;;;;;;7.10;2.25;;;;;;;;;;5068716;28;21066;-63
2023/12/30 11:01:04;;;;;;;5.90;2.05;;;;;;;;;;5073042;28;20865;-64
2023/12/30 11:03:31;;;;;;;9.88;1.88;;;;;;;;;;5078199;28;20043;-64
2023/12/30 11:06:16;;;;;;;7.22;1.92;;;;;;;;;;5072340;28;20026;-64
2023/12/30 11:08:44;;;;;;;6.75;1.63;;;;;;;;;;5068752;28;20020;-64
2023/12/30 11:11:10;;;;;;;5.72;1.90;;;;;;;;;;5076994;28;20032;-63
2023/12/30 11:13:36;;;;;;;9.02;1.75;;;;;;;;;;5069414;28;20066;-63
2023/12/30 11:16:17;;;;;;;4.85;1.83;;;;;;;;;;5073669;28;20123;-64
2023/12/30 11:18:47;;;;;;;6.25;1.98;;;;;;;;;;5063752;28;20032;-65
2023/12/30 11:21:12;;;;;;;6.13;1.80;;;;;;;;;;5070842;28;20032;-65
2023/12/30 11:23:38;;;;;;;9.40;1.98;;;;;;;;;;5078225;28;20054;-64
2023/12/30 11:26:06;;;;;;;7.60;1.70;;;;;;;;;;5076645;28;20040;-65
2023/12/30 11:28:32;;;;;;;8.82;1.92;;;;;;;;;;5071102;28;20285;-64
2023/12/30 11:30:58;;;;;;;9.15;2.35;;;;;;;;;;5073734;28;20053;-63
2023/12/30 11:33:23;;;;;;;5.35;1.70;;;;;;;;;;5075312;28;20040;-64
2023/12/30 11:35:59;;;;;;;7.68;1.67;;;;;;;;;;5072471;28;20879;-63
2023/12/30 11:38:25;;;;;;;7.32;1.65;;;;;;;;;;5070927;28;20190;-63
2023/12/30 11:40:54;;;;;;;9.27;1.92;;;;;;;;;;5076541;28;20044;-64
2023/12/30 11:43:20;;;;;;;7.05;2.08;;;;;;;;;;5082876;28;20028;-66
2023/12/30 11:45:45;;;;;;;8.07;1.60;;;;;;;;;;5082011;28;20089;-63
2023/12/30 11:48:10;;;;;;;6.53;1.65;;;;;;;;;;5084070;28;20059;-64
2023/12/30 11:50:36;;;;;;;6.53;2.15;;;;;;;;;;5080639;28;20085;-64
2023/12/30 11:53:01;;;;;;;6.47;1.77;;;;;;;;;;5078810;28;20035;-63
2023/12/30 11:55:27;;;;;;;6.50;1.70;;;;;;;;;;5081534;28;20281;-64
2023/12/30 11:57:52;;;;;;;8.25;1.77;;;;;;;;;;5083227;28;20457;-65
2023/12/30 12:00:18;;;;;;;9.18;1.90;;;;;;;;;;5082090;28;20050;-65
2023/12/30 12:02:43;;;;;;;6.35;1.67;;;;;;;;;;5080969;28;20031;-65
2023/12/30 12:05:09;;;;;;;12.33;1.87;;;;;;;;;;5077485;28;20106;-65
2023/12/30 12:07:34;;;;;;;9.43;1.35;;;;;;;;;;5078590;28;20285;-66
2023/12/30 12:09:59;;;;;;;5.47;1.50;;;;;;;;;;5083072;28;20458;-66
2023/12/30 12:12:25;;;;;;;4.55;1.50;;;;;;;;;;5083088;28;20063;-66
2023/12/30 12:14:51;;;;;;;4.93;1.58;;;;;;;;;;5082893;28;20420;-66
2023/12/30 12:17:19;;;;;;;9.38;1.83;;;;;;;;;;5081420;28;20103;-66
2023/12/30 12:19:46;;;;;;;4.57;1.08;;;;;;;;;;5079107;28;20602;-65
2023/12/30 12:22:12;;;;;;;7.78;1.70;;;;;;;;;;5083408;28;20040;-66
2023/12/30 12:24:37;;;;;;;7.35;1.70;;;;;;;;;;5068371;28;20142;-67
2023/12/30 12:27:03;;;;;;;4.32;1.73;;;;;;;;;;5071947;28;20034;-65
2023/12/30 12:29:28;;;;;;;6.88;1.63;;;;;;;;;;5082538;28;20043;-66
2023/12/30 12:31:54;;;;;;;8.45;1.90;;;;;;;;;;5087401;28;20095;-66
2023/12/30 12:34:21;;;;;;;3.47;1.08;;;;;;;;;;5086294;28;20042;-66
2023/12/30 12:36:46;;;;;;;4.80;1.33;;;;;;;;;;5084746;28;20020;-65
2023/12/30 12:39:11;;;;;;;4.43;0.98;;;;;;;;;;5059099;28;20032;-65
2023/12/30 12:41:36;;;;;;;8.97;1.57;;;;;;;;;;5075944;28;20073;-65
2023/12/30 12:44:02;;;;;;;7.32;2.17;;;;;;;;;;5093304;28;20277;-68
2023/12/30 12:46:27;;;;;;;7.53;1.50;;;;;;;;;;5091908;28;20103;-64
2023/12/30 12:48:53;;;;;;;4.05;1.15;;;;;;;;;;5091593;28;20020;-64
2023/12/30 12:51:18;;;;;;;8.75;1.40;;;;;;;;;;5092935;28;20032;-65
2023/12/30 12:53:43;;;;;;;6.22;0.77;;;;;;;;;;5074932;28;20680;-65
2023/12/30 12:56:11;;;;;;;9.77;1.40;;;;;;;;;;5093014;28;20027;-65
2023/12/30 12:58:37;;;;;;;5.15;1.30;;;;;;;;;;5093087;28;20080;-64
2023/12/30 13:01:03;;;;;;;11.55;1.55;;;;;;;;;;5092688;28;20020;-65
2023/12/30 13:03:28;;;;;;;7.57;1.45;;;;;;;;;;5090244;28;20028;-64
2023/12/30 13:05:54;;;;;;;5.97;1.52;;;;;;;;;;5075060;28;20031;-64
2023/12/30 13:08:20;;;;;;;4.45;1.35;;;;;;;;;;5091992;28;20043;-64
2023/12/30 13:10:48;;;;;;;4.88;1.60;;;;;;;;;;5091778;28;20158;-64
2023/12/30 13:13:13;;;;;;;4.05;1.60;;;;;;;;;;5092784;28;20386;-65
2023/12/30 13:15:38;;;;;;;5.07;1.53;;;;;;;;;;5091608;28;20069;-64
2023/12/30 13:18:07;;;;;;;7.85;1.65;;;;;;;;;;5091520;28;20808;-65
2023/12/30 13:20:33;;;;;;;4.72;1.10;;;;;;;;;;5092330;28;20055;-65
2023/12/30 13:23:02;;;;;;;4.63;1.17;;;;;;;;;;5092309;28;20114;-66
2023/12/30 13:25:28;;;;;;;4.80;1.40;;;;;;;;;;5092826;28;20043;-65
2023/12/30 13:27:53;;;;;;;5.60;1.63;;;;;;;;;;5092835;28;20020;-64
2023/12/30 13:30:22;;;;;;;6.90;1.55;;;;;;;;;;5091587;28;20058;-65
2023/12/30 13:32:48;;;;;;;9.90;1.45;;;;;;;;;;5088060;28;20158;-65
2023/12/30 13:35:13;;;;;;;6.50;1.33;;;;;;;;;;5086262;28;20114;-65
2023/12/30 13:37:40;;;;;;;4.55;1.10;;;;;;;;;;5087270;28;20832;-65
2023/12/30 13:40:10;;;;;;;10.68;1.23;;;;;;;;;;5088683;28;20024;-66
2023/12/30 13:42:36;;;;;;;3.47;1.05;;;;;;;;;;5089926;28;20016;-64
2023/12/30 13:45:03;;;;;;;4.38;1.15;;;;;;;;;;5089766;28;20363;-64
2023/12/30 13:47:45;;;;;;;4.00;1.30;;;;;;;;;;5071197;28;20036;-66
2023/12/30 13:52:39;;;;;;;5.55;1.35;;;;;;;;;;5086929;28;20044;-66
2023/12/30 13:55:06;;;;;;;5.93;1.15;;;;;;;;;;5090321;28;20066;-66
2023/12/30 13:57:32;;;;;;;5.07;1.23;;;;;;;;;;5089109;28;20019;-66
2023/12/30 13:59:58;;;;;;;3.45;0.90;;;;;;;;;;5089417;28;20043;-65
2023/12/30 14:02:24;;;;;;;4.70;1.33;;;;;;;;;;5081871;28;20036;-66
2023/12/30 14:04:53;;;;;;;3.15;0.93;;;;;;;;;;5083270;28;20032;-66
2023/12/30 14:07:26;;;;;;;4.25;1.05;;;;;;;;;;5091320;28;20110;-66
2023/12/30 14:09:54;;;;;;;1.70;0.70;;;;;;;;;;5084570;28;20024;-66
2023/12/30 14:12:24;;;;;;;3.90;1.10;;;;;;;;;;5085228;28;20154;-66
2023/12/30 14:14:55;;;;;;;3.17;0.90;;;;;;;;;;5084265;28;20028;-66
2023/12/30 14:17:21;;;;;;;2.72;1.05;;;;;;;;;;5084182;28;20089;-66
2023/12/30 14:19:48;;;;;;;4.45;1.23;;;;;;;;;;5090735;28;20020;-66
2023/12/30 14:22:14;;;;;;;6.85;1.27;;;;;;;;;;5083362;28;20084;-66
2023/12/30 14:24:39;;;;;;;3.55;0.82;;;;;;;;;;5085998;28;20040;-66
2023/12/30 14:27:04;;;;;;;6.53;1.77;;;;;;;;;;5088115;28;20469;-66
2023/12/30 14:29:29;;;;;;;3.97;0.88;;;;;;;;;;5085674;28;20036;-66
2023/12/30 14:31:55;;;;;;;3.75;1.00;;;;;;;;;;5088473;28;20020;-67
2023/12/30 14:34:20;;;;;;;3.53;1.00;;;;;;;;;;5090382;28;20027;-66